Sioux Lookout Airport
CYXL : now visible

Airfield :











YOU CAN JOIN US ON...

 
LOGIN :

Register | Disclaimer

   EN    FR    IT 

 









Legend :    VFR   Marginal VFR   IFR   Intensive IFR   Very Intensive IFR
Visi :
Ceiling :
>= 8 km
>= 3000ft
5 to 8 km
1000 to 3000 ft
1500m to 5 km
500 to 1000 ft
800 to 1500m
200 to 500 ft
< 800m
< 200 ft
Symbols :   Thunderstorms  Fog  Heavy snow  Heavy precipitations  Wind > 20 kt






- Airport Elevation : 1258 ft
- IATA code : YXL


CYXL - Sioux Lookout

CURRENT METAR :
  • 261700Z VRB04KT 15SM -SN SCT022 SCT085 BKN230 M12/M18 A3033 RMK SC3AC1CI1 SLP310

EXPIRED METARs :
  • 261600Z 33004KT 15SM -SN FEW020 SCT085 BKN210 M15/M19 A3035 RMK CF1AC3CI1 SLP317
  • 261500Z VRB02KT 12SM -SN SCT090 BKN210 M16/M19 A3036 RMK AS4CI1 SLP321

TAF TAF CYXL
Valid from the 26 at 14:00 until the 27 at 02:00 UTC


261338Z 2614/2702 02005KT P6SM -SN OVC030
TEMPO 2614/2618 3SM -SN OVC020
FM261800 01005KT P6SM SCT030
TEMPO 2618/2702 BKN030 RMK NXT FCST BY 262000Z



MET'MAP, your aeronautical weather chart ! - Copyright ORBIFLY December 2007 - Disclaimer

ORBIFLY MET'MAP TEAM :

Programming & Development : Alexandra Zaïnal
Concept & original design : Baudouin d'Aumeries
Assistance for programming : Marc-Olivier Méhu
Technical & hardware support : Manuel Goepfert

Contact : metmap@orbifly.com




SOURCES & CREDITS :

   NOAA       Earth
Advisory